sensor_id;sensor_type;location;lat;lon;timestamp;temperature;humidity
15937;DHT22;9163;48.818;8.976;2023-09-08T00:01:12;17.70;96.20
15937;DHT22;9163;48.818;8.976;2023-09-08T00:03:40;17.70;97.30
15937;DHT22;9163;48.818;8.976;2023-09-08T00:06:07;17.60;99.90
15937;DHT22;9163;48.818;8.976;2023-09-08T00:08:35;17.70;99.90
15937;DHT22;9163;48.818;8.976;2023-09-08T00:11:03;17.70;96.70
15937;DHT22;9163;48.818;8.976;2023-09-08T00:13:30;17.70;99.90
15937;DHT22;9163;48.818;8.976;2023-09-08T00:15:58;17.60;99.90
15937;DHT22;9163;48.818;8.976;2023-09-08T00:18:25;17.50;99.90
15937;DHT22;9163;48.818;8.976;2023-09-08T00:20:52;17.40;99.90
15937;DHT22;9163;48.818;8.976;2023-09-08T00:23:19;17.40;99.90
15937;DHT22;9163;48.818;8.976;2023-09-08T00:25:49;17.30;99.90
15937;DHT22;9163;48.818;8.976;2023-09-08T00:28:16;17.20;99.90
15937;DHT22;9163;48.818;8.976;2023-09-08T00:30:43;17.20;99.90
15937;DHT22;9163;48.818;8.976;2023-09-08T00:33:10;17.10;99.90
15937;DHT22;9163;48.818;8.976;2023-09-08T00:35:40;17.10;99.90
15937;DHT22;9163;48.818;8.976;2023-09-08T00:38:10;17.00;99.90
15937;DHT22;9163;48.818;8.976;2023-09-08T00:40:38;17.00;99.90
15937;DHT22;9163;48.818;8.976;2023-09-08T00:43:06;16.90;99.90
15937;DHT22;9163;48.818;8.976;2023-09-08T00:45:37;16.90;99.90
15937;DHT22;9163;48.818;8.976;2023-09-08T00:48:05;16.90;99.90
15937;DHT22;9163;48.818;8.976;2023-09-08T00:50:33;17.00;99.90
15937;DHT22;9163;48.818;8.976;2023-09-08T00:53:00;17.00;99.90
15937;DHT22;9163;48.818;8.976;2023-09-08T00:55:28;17.00;99.90
15937;DHT22;9163;48.818;8.976;2023-09-08T00:57:55;17.00;99.90
15937;DHT22;9163;48.818;8.976;2023-09-08T01:00:24;17.00;99.90
15937;DHT22;9163;48.818;8.976;2023-09-08T01:02:51;17.10;99.90
15937;DHT22;9163;48.818;8.976;2023-09-08T01:05:19;17.10;99.90
15937;DHT22;9163;48.818;8.976;2023-09-08T01:07:47;17.10;99.90
15937;DHT22;9163;48.818;8.976;2023-09-08T01:10:15;17.10;99.90
15937;DHT22;9163;48.818;8.976;2023-09-08T01:12:42;17.10;99.90
15937;DHT22;9163;48.818;8.976;2023-09-08T01:15:10;17.20;99.90
15937;DHT22;9163;48.818;8.976;2023-09-08T01:17:39;17.20;99.90
15937;DHT22;9163;48.818;8.976;2023-09-08T01:20:14;17.20;99.90
15937;DHT22;9163;48.818;8.976;2023-09-08T01:23:01;17.30;99.90
15937;DHT22;9163;48.818;8.976;2023-09-08T01:25:32;17.20;99.90
15937;DHT22;9163;48.818;8.976;2023-09-08T01:28:01;17.20;99.90
15937;DHT22;9163;48.818;8.976;2023-09-08T01:30:31;17.20;99.90
15937;DHT22;9163;48.818;8.976;2023-09-08T01:32:59;17.20;99.90
15937;DHT22;9163;48.818;8.976;2023-09-08T01:35:27;17.10;99.90
15937;DHT22;9163;48.818;8.976;2023-09-08T01:37:54;17.10;99.90
15937;DHT22;9163;48.818;8.976;2023-09-08T01:40:22;17.00;99.90
15937;DHT22;9163;48.818;8.976;2023-09-08T01:42:51;16.90;99.90
15937;DHT22;9163;48.818;8.976;2023-09-08T01:45:18;16.90;99.90
15937;DHT22;9163;48.818;8.976;2023-09-08T01:47:45;16.90;99.90
15937;DHT22;9163;48.818;8.976;2023-09-08T01:50:13;16.90;99.90
15937;DHT22;9163;48.818;8.976;2023-09-08T01:52:41;16.90;99.90
15937;DHT22;9163;48.818;8.976;2023-09-08T01:55:08;16.90;99.90
15937;DHT22;9163;48.818;8.976;2023-09-08T01:57:37;16.80;99.90
15937;DHT22;9163;48.818;8.976;2023-09-08T02:00:08;16.80;99.90
15937;DHT22;9163;48.818;8.976;2023-09-08T02:02:35;16.70;99.90
15937;DHT22;9163;48.818;8.976;2023-09-08T02:05:02;16.60;99.90
15937;DHT22;9163;48.818;8.976;2023-09-08T02:07:30;16.50;99.90
15937;DHT22;9163;48.818;8.976;2023-09-08T02:09:57;16.60;99.90
15937;DHT22;9163;48.818;8.976;2023-09-08T02:12:25;16.60;99.90
15937;DHT22;9163;48.818;8.976;2023-09-08T02:14:52;16.60;99.90
15937;DHT22;9163;48.818;8.976;2023-09-08T02:17:20;16.50;99.90
15937;DHT22;9163;48.818;8.976;2023-09-08T02:19:47;16.50;99.90
15937;DHT22;9163;48.818;8.976;2023-09-08T02:22:15;16.40;99.90
15937;DHT22;9163;48.818;8.976;2023-09-08T02:24:42;16.40;99.90
15937;DHT22;9163;48.818;8.976;2023-09-08T02:27:09;16.30;99.90
15937;DHT22;9163;48.818;8.976;2023-09-08T02:29:36;16.20;99.90
15937;DHT22;9163;48.818;8.976;2023-09-08T02:32:04;16.10;99.90
15937;DHT22;9163;48.818;8.976;2023-09-08T02:34:35;16.10;99.90
15937;DHT22;9163;48.818;8.976;2023-09-08T02:37:03;16.00;99.90
15937;DHT22;9163;48.818;8.976;2023-09-08T02:39:32;15.90;99.90
15937;DHT22;9163;48.818;8.976;2023-09-08T02:42:00;15.90;99.90
15937;DHT22;9163;48.818;8.976;2023-09-08T02:44:27;15.90;99.90
15937;DHT22;9163;48.818;8.976;2023-09-08T02:46:55;15.90;99.90
15937;DHT22;9163;48.818;8.976;2023-09-08T02:49:22;15.80;99.90
15937;DHT22;9163;48.818;8.976;2023-09-08T02:51:51;15.90;99.90
15937;DHT22;9163;48.818;8.976;2023-09-08T02:54:18;15.90;99.90
15937;DHT22;9163;48.818;8.976;2023-09-08T02:56:45;15.80;99.90
15937;DHT22;9163;48.818;8.976;2023-09-08T02:59:12;15.80;99.90
15937;DHT22;9163;48.818;8.976;2023-09-08T03:01:40;15.80;99.90
15937;DHT22;9163;48.818;8.976;2023-09-08T03:04:07;15.80;99.90
15937;DHT22;9163;48.818;8.976;2023-09-08T03:06:35;15.80;99.90
15937;DHT22;9163;48.818;8.976;2023-09-08T03:09:04;15.70;99.90
15937;DHT22;9163;48.818;8.976;2023-09-08T03:11:31;15.70;99.90
15937;DHT22;9163;48.818;8.976;2023-09-08T03:13:58;15.70;99.90
15937;DHT22;9163;48.818;8.976;2023-09-08T03:16:25;15.60;99.90
15937;DHT22;9163;48.818;8.976;2023-09-08T03:18:52;15.60;99.90
15937;DHT22;9163;48.818;8.976;2023-09-08T03:21:20;15.60;99.90
15937;DHT22;9163;48.818;8.976;2023-09-08T03:23:47;15.60;99.90
15937;DHT22;9163;48.818;8.976;2023-09-08T03:26:16;15.50;99.90
15937;DHT22;9163;48.818;8.976;2023-09-08T03:28:43;15.50;99.90
15937;DHT22;9163;48.818;8.976;2023-09-08T03:31:10;15.40;99.90
15937;DHT22;9163;48.818;8.976;2023-09-08T03:33:37;15.40;99.90
15937;DHT22;9163;48.818;8.976;2023-09-08T03:36:05;15.40;99.90
15937;DHT22;9163;48.818;8.976;2023-09-08T03:38:32;15.40;99.90
15937;DHT22;9163;48.818;8.976;2023-09-08T03:40:59;15.30;99.90
15937;DHT22;9163;48.818;8.976;2023-09-08T03:43:28;15.30;99.90
15937;DHT22;9163;48.818;8.976;2023-09-08T03:45:56;15.20;99.90
15937;DHT22;9163;48.818;8.976;2023-09-08T03:48:23;15.20;99.90
15937;DHT22;9163;48.818;8.976;2023-09-08T03:50:51;15.10;99.90
15937;DHT22;9163;48.818;8.976;2023-09-08T03:53:18;15.10;99.90
15937;DHT22;9163;48.818;8.976;2023-09-08T03:55:45;15.10;99.90
15937;DHT22;9163;48.818;8.976;2023-09-08T03:58:12;15.00;99.90
15937;DHT22;9163;48.818;8.976;2023-09-08T04:00:41;15.00;99.90
15937;DHT22;9163;48.818;8.976;2023-09-08T04:03:08;15.00;99.90
15937;DHT22;9163;48.818;8.976;2023-09-08T04:05:36;15.10;99.90
15937;DHT22;9163;48.818;8.976;2023-09-08T04:08:03;15.10;99.90
15937;DHT22;9163;48.818;8.976;2023-09-08T04:10:31;15.10;99.90
15937;DHT22;9163;48.818;8.976;2023-09-08T04:12:58;15.10;99.90
15937;DHT22;9163;48.818;8.976;2023-09-08T04:15:25;15.10;99.90
15937;DHT22;9163;48.818;8.976;2023-09-08T04:17:54;15.10;99.90
15937;DHT22;9163;48.818;8.976;2023-09-08T04:20:23;15.10;99.90
15937;DHT22;9163;48.818;8.976;2023-09-08T04:22:50;15.10;99.90
15937;DHT22;9163;48.818;8.976;2023-09-08T04:25:17;15.10;99.90
15937;DHT22;9163;48.818;8.976;2023-09-08T04:27:44;15.20;99.90
15937;DHT22;9163;48.818;8.976;2023-09-08T04:30:13;15.20;99.90
15937;DHT22;9163;48.818;8.976;2023-09-08T04:32:40;15.20;99.90
15937;DHT22;9163;48.818;8.976;2023-09-08T04:35:09;15.20;99.90
15937;DHT22;9163;48.818;8.976;2023-09-08T04:37:36;15.20;99.90
15937;DHT22;9163;48.818;8.976;2023-09-08T04:40:05;15.20;99.90
15937;DHT22;9163;48.818;8.976;2023-09-08T04:42:33;15.20;99.90
15937;DHT22;9163;48.818;8.976;2023-09-08T04:45:00;15.10;99.90
15937;DHT22;9163;48.818;8.976;2023-09-08T04:47:27;15.10;99.90
15937;DHT22;9163;48.818;8.976;2023-09-08T04:49:55;15.10;99.90
15937;DHT22;9163;48.818;8.976;2023-09-08T04:52:23;15.10;99.90
15937;DHT22;9163;48.818;8.976;2023-09-08T04:54:51;15.10;99.90
15937;DHT22;9163;48.818;8.976;2023-09-08T04:57:18;15.10;99.90
15937;DHT22;9163;48.818;8.976;2023-09-08T04:59:45;15.10;99.90
15937;DHT22;9163;48.818;8.976;2023-09-08T05:02:12;15.10;99.90
15937;DHT22;9163;48.818;8.976;2023-09-08T05:04:41;15.10;99.90
15937;DHT22;9163;48.818;8.976;2023-09-08T05:07:08;15.10;99.90
15937;DHT22;9163;48.818;8.976;2023-09-08T05:09:37;15.10;99.90
15937;DHT22;9163;48.818;8.976;2023-09-08T05:12:05;15.10;99.90
15937;DHT22;9163;48.818;8.976;2023-09-08T05:14:32;15.20;99.90
15937;DHT22;9163;48.818;8.976;2023-09-08T05:16:59;15.20;99.90
15937;DHT22;9163;48.818;8.976;2023-09-08T05:19:26;15.20;99.90
15937;DHT22;9163;48.818;8.976;2023-09-08T05:21:55;15.20;99.90
15937;DHT22;9163;48.818;8.976;2023-09-08T05:24:22;15.20;99.90
15937;DHT22;9163;48.818;8.976;2023-09-08T05:26:53;15.40;99.90
15937;DHT22;9163;48.818;8.976;2023-09-08T05:29:20;15.40;99.90
15937;DHT22;9163;48.818;8.976;2023-09-08T05:31:47;15.60;99.90
15937;DHT22;9163;48.818;8.976;2023-09-08T05:34:14;15.60;99.90
15937;DHT22;9163;48.818;8.976;2023-09-08T05:36:42;15.60;99.90
15937;DHT22;9163;48.818;8.976;2023-09-08T05:39:09;15.70;99.90
15937;DHT22;9163;48.818;8.976;2023-09-08T05:41:39;15.70;99.90
15937;DHT22;9163;48.818;8.976;2023-09-08T05:44:08;15.90;99.90
15937;DHT22;9163;48.818;8.976;2023-09-08T05:46:35;16.00;99.90
15937;DHT22;9163;48.818;8.976;2023-09-08T05:49:02;16.00;99.90
15937;DHT22;9163;48.818;8.976;2023-09-08T05:51:29;16.10;99.90
15937;DHT22;9163;48.818;8.976;2023-09-08T05:53:57;16.20;99.90
15937;DHT22;9163;48.818;8.976;2023-09-08T05:56:29;16.30;99.90
15937;DHT22;9163;48.818;8.976;2023-09-08T05:58:56;16.30;99.90
15937;DHT22;9163;48.818;8.976;2023-09-08T06:01:25;16.40;99.90
15937;DHT22;9163;48.818;8.976;2023-09-08T06:03:52;16.40;99.90
15937;DHT22;9163;48.818;8.976;2023-09-08T06:06:20;16.50;99.90
15937;DHT22;9163;48.818;8.976;2023-09-08T06:08:47;16.50;99.90
15937;DHT22;9163;48.818;8.976;2023-09-08T06:11:15;16.60;99.90
15937;DHT22;9163;48.818;8.976;2023-09-08T06:13:42;16.70;99.90
15937;DHT22;9163;48.818;8.976;2023-09-08T06:16:09;16.80;99.90
15937;DHT22;9163;48.818;8.976;2023-09-08T06:18:37;17.00;99.90
15937;DHT22;9163;48.818;8.976;2023-09-08T06:21:07;17.10;99.90
15937;DHT22;9163;48.818;8.976;2023-09-08T06:23:34;17.20;99.90
15937;DHT22;9163;48.818;8.976;2023-09-08T06:26:02;17.20;99.90
15937;DHT22;9163;48.818;8.976;2023-09-08T06:28:29;17.20;99.90
15937;DHT22;9163;48.818;8.976;2023-09-08T06:30:56;17.40;99.90
15937;DHT22;9163;48.818;8.976;2023-09-08T06:33:23;17.50;99.90
15937;DHT22;9163;48.818;8.976;2023-09-08T06:35:52;17.50;99.90
15937;DHT22;9163;48.818;8.976;2023-09-08T06:38:20;17.80;99.90
15937;DHT22;9163;48.818;8.976;2023-09-08T06:40:47;17.80;99.90
15937;DHT22;9163;48.818;8.976;2023-09-08T06:43:15;17.80;99.90
15937;DHT22;9163;48.818;8.976;2023-09-08T06:45:42;17.80;99.90
15937;DHT22;9163;48.818;8.976;2023-09-08T06:48:10;17.90;99.90
15937;DHT22;9163;48.818;8.976;2023-09-08T06:50:37;17.90;99.90
15937;DHT22;9163;48.818;8.976;2023-09-08T06:53:05;18.10;99.90
15937;DHT22;9163;48.818;8.976;2023-09-08T06:55:33;18.20;99.90
15937;DHT22;9163;48.818;8.976;2023-09-08T06:58:00;18.40;99.90
15937;DHT22;9163;48.818;8.976;2023-09-08T07:00:27;18.60;99.90
15937;DHT22;9163;48.818;8.976;2023-09-08T07:02:54;18.80;99.90
15937;DHT22;9163;48.818;8.976;2023-09-08T07:05:21;18.90;99.90
15937;DHT22;9163;48.818;8.976;2023-09-08T07:07:49;19.10;99.90
15937;DHT22;9163;48.818;8.976;2023-09-08T07:10:17;19.30;99.90
15937;DHT22;9163;48.818;8.976;2023-09-08T07:12:45;19.30;99.90
15937;DHT22;9163;48.818;8.976;2023-09-08T07:15:13;19.50;99.90
15937;DHT22;9163;48.818;8.976;2023-09-08T07:17:40;19.60;99.90
15937;DHT22;9163;48.818;8.976;2023-09-08T07:20:09;20.00;99.90
15937;DHT22;9163;48.818;8.976;2023-09-08T07:22:36;20.00;99.90
15937;DHT22;9163;48.818;8.976;2023-09-08T07:25:04;20.20;99.90
15937;DHT22;9163;48.818;8.976;2023-09-08T07:27:33;20.60;96.10
15937;DHT22;9163;48.818;8.976;2023-09-08T07:30:01;20.70;87.40
15937;DHT22;9163;48.818;8.976;2023-09-08T07:32:28;20.90;71.30
15937;DHT22;9163;48.818;8.976;2023-09-08T07:34:55;21.20;69.90
15937;DHT22;9163;48.818;8.976;2023-09-08T07:37:23;21.30;71.90
15937;DHT22;9163;48.818;8.976;2023-09-08T07:39:51;21.50;51.70
15937;DHT22;9163;48.818;8.976;2023-09-08T07:42:18;21.60;44.10
15937;DHT22;9163;48.818;8.976;2023-09-08T07:44:47;21.60;46.30
15937;DHT22;9163;48.818;8.976;2023-09-08T07:47:14;22.00;38.30
15937;DHT22;9163;48.818;8.976;2023-09-08T07:49:46;22.30;24.30
15937;DHT22;9163;48.818;8.976;2023-09-08T07:52:13;22.30;17.10
15937;DHT22;9163;48.818;8.976;2023-09-08T07:54:41;22.70;15.20
15937;DHT22;9163;48.818;8.976;2023-09-08T07:57:08;22.80;15.70
15937;DHT22;9163;48.818;8.976;2023-09-08T07:59:35;23.30;8.10
15937;DHT22;9163;48.818;8.976;2023-09-08T08:02:04;23.20;1.00
15937;DHT22;9163;48.818;8.976;2023-09-08T08:04:31;23.20;1.00
15937;DHT22;9163;48.818;8.976;2023-09-08T08:06:58;23.30;1.00
15937;DHT22;9163;48.818;8.976;2023-09-08T08:09:25;23.60;1.00
15937;DHT22;9163;48.818;8.976;2023-09-08T08:11:53;23.40;1.00
15937;DHT22;9163;48.818;8.976;2023-09-08T08:14:20;23.50;1.00
15937;DHT22;9163;48.818;8.976;2023-09-08T08:16:47;23.70;1.00
15937;DHT22;9163;48.818;8.976;2023-09-08T08:19:16;24.30;1.00
15937;DHT22;9163;48.818;8.976;2023-09-08T08:21:43;24.50;1.00
15937;DHT22;9163;48.818;8.976;2023-09-08T08:24:10;24.60;1.00
15937;DHT22;9163;48.818;8.976;2023-09-08T08:26:38;24.40;1.00
15937;DHT22;9163;48.818;8.976;2023-09-08T08:29:05;24.60;1.00
15937;DHT22;9163;48.818;8.976;2023-09-08T08:31:32;24.90;1.00
15937;DHT22;9163;48.818;8.976;2023-09-08T08:34:00;25.70;1.00
15937;DHT22;9163;48.818;8.976;2023-09-08T08:36:28;26.10;1.00
15937;DHT22;9163;48.818;8.976;2023-09-08T08:38:55;26.00;1.00
15937;DHT22;9163;48.818;8.976;2023-09-08T08:41:23;26.00;1.00
15937;DHT22;9163;48.818;8.976;2023-09-08T08:43:51;26.10;1.00
15937;DHT22;9163;48.818;8.976;2023-09-08T08:46:21;26.50;1.00
15937;DHT22;9163;48.818;8.976;2023-09-08T08:48:49;26.70;1.00
15937;DHT22;9163;48.818;8.976;2023-09-08T08:51:23;26.80;1.00
15937;DHT22;9163;48.818;8.976;2023-09-08T08:53:52;27.00;1.00
15937;DHT22;9163;48.818;8.976;2023-09-08T08:56:20;27.00;1.00
15937;DHT22;9163;48.818;8.976;2023-09-08T08:58:48;27.10;1.00
15937;DHT22;9163;48.818;8.976;2023-09-08T09:01:16;26.80;1.00
15937;DHT22;9163;48.818;8.976;2023-09-08T09:03:46;27.70;1.00
15937;DHT22;9163;48.818;8.976;2023-09-08T09:06:15;28.20;1.00
15937;DHT22;9163;48.818;8.976;2023-09-08T09:08:43;27.70;1.00
15937;DHT22;9163;48.818;8.976;2023-09-08T09:11:12;27.90;1.00
15937;DHT22;9163;48.818;8.976;2023-09-08T09:13:39;27.10;1.00
15937;DHT22;9163;48.818;8.976;2023-09-08T09:16:06;27.50;1.00
15937;DHT22;9163;48.818;8.976;2023-09-08T09:18:53;27.70;1.00
15937;DHT22;9163;48.818;8.976;2023-09-08T09:21:21;28.00;1.00
15937;DHT22;9163;48.818;8.976;2023-09-08T09:23:49;28.00;1.00
15937;DHT22;9163;48.818;8.976;2023-09-08T09:26:25;28.10;1.00
15937;DHT22;9163;48.818;8.976;2023-09-08T09:28:53;28.60;1.00
15937;DHT22;9163;48.818;8.976;2023-09-08T09:31:24;28.80;1.00
15937;DHT22;9163;48.818;8.976;2023-09-08T09:34:04;28.80;1.00
15937;DHT22;9163;48.818;8.976;2023-09-08T09:36:32;29.20;1.00
15937;DHT22;9163;48.818;8.976;2023-09-08T09:38:59;28.70;1.00
15937;DHT22;9163;48.818;8.976;2023-09-08T09:41:29;29.10;1.00
15937;DHT22;9163;48.818;8.976;2023-09-08T09:43:56;29.90;1.00
15937;DHT22;9163;48.818;8.976;2023-09-08T09:46:24;30.30;1.00
15937;DHT22;9163;48.818;8.976;2023-09-08T09:48:54;30.80;1.00
15937;DHT22;9163;48.818;8.976;2023-09-08T09:51:22;31.30;1.00
15937;DHT22;9163;48.818;8.976;2023-09-08T09:53:50;31.80;1.00
15937;DHT22;9163;48.818;8.976;2023-09-08T09:56:17;31.80;1.00
15937;DHT22;9163;48.818;8.976;2023-09-08T09:58:47;32.10;1.00
15937;DHT22;9163;48.818;8.976;2023-09-08T10:01:15;32.50;1.00
15937;DHT22;9163;48.818;8.976;2023-09-08T10:03:43;32.80;1.00
15937;DHT22;9163;48.818;8.976;2023-09-08T10:06:11;33.20;1.00
15937;DHT22;9163;48.818;8.976;2023-09-08T10:08:39;33.50;1.00
15937;DHT22;9163;48.818;8.976;2023-09-08T10:11:09;33.40;1.00
15937;DHT22;9163;48.818;8.976;2023-09-08T10:13:39;33.80;1.00
15937;DHT22;9163;48.818;8.976;2023-09-08T10:16:13;33.90;1.00
15937;DHT22;9163;48.818;8.976;2023-09-08T10:18:44;34.00;1.00
15937;DHT22;9163;48.818;8.976;2023-09-08T10:21:13;33.80;99.90
15937;DHT22;9163;48.818;8.976;2023-09-08T10:23:49;33.50;99.90
15937;DHT22;9163;48.818;8.976;2023-09-08T10:26:24;33.20;99.90
15937;DHT22;9163;48.818;8.976;2023-09-08T10:28:54;33.70;99.90
15937;DHT22;9163;48.818;8.976;2023-09-08T10:31:25;33.90;99.90
15937;DHT22;9163;48.818;8.976;2023-09-08T10:33:54;33.60;99.90
15937;DHT22;9163;48.818;8.976;2023-09-08T10:36:23;33.70;99.90
15937;DHT22;9163;48.818;8.976;2023-09-08T10:38:50;34.10;99.90
15937;DHT22;9163;48.818;8.976;2023-09-08T10:41:27;34.20;99.90
15937;DHT22;9163;48.818;8.976;2023-09-08T10:44:01;34.20;99.90
15937;DHT22;9163;48.818;8.976;2023-09-08T10:46:32;34.40;99.90
15937;DHT22;9163;48.818;8.976;2023-09-08T10:49:02;34.50;99.90
15937;DHT22;9163;48.818;8.976;2023-09-08T10:51:30;34.50;99.90
15937;DHT22;9163;48.818;8.976;2023-09-08T10:53:58;34.40;99.90
15937;DHT22;9163;48.818;8.976;2023-09-08T10:56:46;34.50;99.90
15937;DHT22;9163;48.818;8.976;2023-09-08T10:59:15;34.60;99.90
15937;DHT22;9163;48.818;8.976;2023-09-08T11:01:44;34.20;99.90
15937;DHT22;9163;48.818;8.976;2023-09-08T11:04:12;32.80;66.90
15937;DHT22;9163;48.818;8.976;2023-09-08T11:06:40;32.60;6.30
15937;DHT22;9163;48.818;8.976;2023-09-08T11:09:08;33.10;99.90
15937;DHT22;9163;48.818;8.976;2023-09-08T11:11:35;34.00;99.90
15937;DHT22;9163;48.818;8.976;2023-09-08T11:14:03;34.10;99.90
15937;DHT22;9163;48.818;8.976;2023-09-08T11:16:31;34.70;99.90
15937;DHT22;9163;48.818;8.976;2023-09-08T11:19:00;35.30;99.90
15937;DHT22;9163;48.818;8.976;2023-09-08T11:21:31;35.40;99.90
15937;DHT22;9163;48.818;8.976;2023-09-08T11:24:01;35.90;99.90
15937;DHT22;9163;48.818;8.976;2023-09-08T11:26:32;35.70;1.00
15937;DHT22;9163;48.818;8.976;2023-09-08T11:29:00;36.10;60.20
15937;DHT22;9163;48.818;8.976;2023-09-08T11:31:27;36.00;52.40
15937;DHT22;9163;48.818;8.976;2023-09-08T11:33:55;36.60;99.90
15937;DHT22;9163;48.818;8.976;2023-09-08T11:36:23;36.70;96.70
15937;DHT22;9163;48.818;8.976;2023-09-08T11:38:52;37.10;98.60
15937;DHT22;9163;48.818;8.976;2023-09-08T11:41:19;37.00;95.00
15937;DHT22;9163;48.818;8.976;2023-09-08T11:43:49;37.60;90.70
15937;DHT22;9163;48.818;8.976;2023-09-08T11:46:17;38.00;5.20
15937;DHT22;9163;48.818;8.976;2023-09-08T11:48:46;38.00;13.40
15937;DHT22;9163;48.818;8.976;2023-09-08T11:51:13;37.90;1.00
15937;DHT22;9163;48.818;8.976;2023-09-08T11:53:42;38.40;1.00
15937;DHT22;9163;48.818;8.976;2023-09-08T11:56:10;38.60;1.00
15937;DHT22;9163;48.818;8.976;2023-09-08T11:58:37;39.10;1.00
15937;DHT22;9163;48.818;8.976;2023-09-08T12:01:05;37.10;1.00
15937;DHT22;9163;48.818;8.976;2023-09-08T12:03:33;37.90;1.00
15937;DHT22;9163;48.818;8.976;2023-09-08T12:06:00;38.30;1.00
15937;DHT22;9163;48.818;8.976;2023-09-08T12:08:28;38.40;1.00
15937;DHT22;9163;48.818;8.976;2023-09-08T12:10:57;38.90;1.00
15937;DHT22;9163;48.818;8.976;2023-09-08T12:13:24;39.30;1.00
15937;DHT22;9163;48.818;8.976;2023-09-08T12:15:52;39.70;1.00
15937;DHT22;9163;48.818;8.976;2023-09-08T12:18:19;39.20;1.00
15937;DHT22;9163;48.818;8.976;2023-09-08T12:21:04;38.70;1.00
15937;DHT22;9163;48.818;8.976;2023-09-08T12:23:32;39.40;1.00
15937;DHT22;9163;48.818;8.976;2023-09-08T12:26:01;39.40;1.00
15937;DHT22;9163;48.818;8.976;2023-09-08T12:28:30;39.80;1.00
15937;DHT22;9163;48.818;8.976;2023-09-08T12:30:58;40.00;1.00
15937;DHT22;9163;48.818;8.976;2023-09-08T12:33:26;40.20;1.00
15937;DHT22;9163;48.818;8.976;2023-09-08T12:35:53;40.40;1.00
15937;DHT22;9163;48.818;8.976;2023-09-08T12:38:20;40.50;1.00
15937;DHT22;9163;48.818;8.976;2023-09-08T12:40:48;40.30;1.00
15937;DHT22;9163;48.818;8.976;2023-09-08T12:43:17;40.10;1.00
15937;DHT22;9163;48.818;8.976;2023-09-08T12:45:44;40.00;1.00
15937;DHT22;9163;48.818;8.976;2023-09-08T12:48:12;39.20;1.00
15937;DHT22;9163;48.818;8.976;2023-09-08T12:50:39;39.60;1.00
15937;DHT22;9163;48.818;8.976;2023-09-08T12:53:07;39.90;1.00
15937;DHT22;9163;48.818;8.976;2023-09-08T12:55:34;39.90;1.00
15937;DHT22;9163;48.818;8.976;2023-09-08T12:58:01;40.00;1.00
15937;DHT22;9163;48.818;8.976;2023-09-08T13:00:29;40.20;1.00
15937;DHT22;9163;48.818;8.976;2023-09-08T13:02:57;40.20;1.00
15937;DHT22;9163;48.818;8.976;2023-09-08T13:05:24;39.90;1.00
15937;DHT22;9163;48.818;8.976;2023-09-08T13:07:51;39.50;1.00
15937;DHT22;9163;48.818;8.976;2023-09-08T13:10:18;39.70;1.00
15937;DHT22;9163;48.818;8.976;2023-09-08T13:12:46;39.40;1.00
15937;DHT22;9163;48.818;8.976;2023-09-08T13:15:14;39.70;1.00
15937;DHT22;9163;48.818;8.976;2023-09-08T13:17:43;39.20;1.00
15937;DHT22;9163;48.818;8.976;2023-09-08T13:20:11;37.40;1.00
15937;DHT22;9163;48.818;8.976;2023-09-08T13:22:38;37.80;1.00
15937;DHT22;9163;48.818;8.976;2023-09-08T13:25:06;38.20;1.00
15937;DHT22;9163;48.818;8.976;2023-09-08T13:27:34;38.20;1.00
15937;DHT22;9163;48.818;8.976;2023-09-08T13:30:18;38.40;1.00
15937;DHT22;9163;48.818;8.976;2023-09-08T13:32:48;38.60;99.90
15937;DHT22;9163;48.818;8.976;2023-09-08T13:35:16;39.00;1.00
15937;DHT22;9163;48.818;8.976;2023-09-08T13:37:43;39.10;1.00
15937;DHT22;9163;48.818;8.976;2023-09-08T13:40:11;38.70;1.00
15937;DHT22;9163;48.818;8.976;2023-09-08T13:42:38;38.30;99.90
15937;DHT22;9163;48.818;8.976;2023-09-08T13:45:06;38.20;1.00
15937;DHT22;9163;48.818;8.976;2023-09-08T13:47:34;38.30;1.00
15937;DHT22;9163;48.818;8.976;2023-09-08T13:50:04;38.30;1.00
15937;DHT22;9163;48.818;8.976;2023-09-08T13:52:32;38.40;1.00
15937;DHT22;9163;48.818;8.976;2023-09-08T13:54:59;38.50;1.00
15937;DHT22;9163;48.818;8.976;2023-09-08T13:57:26;38.40;1.00
15937;DHT22;9163;48.818;8.976;2023-09-08T13:59:54;38.60;1.00
15937;DHT22;9163;48.818;8.976;2023-09-08T14:02:21;38.10;1.00
15937;DHT22;9163;48.818;8.976;2023-09-08T14:04:48;37.80;1.00
15937;DHT22;9163;48.818;8.976;2023-09-08T14:07:17;37.60;1.00
15937;DHT22;9163;48.818;8.976;2023-09-08T14:09:44;37.60;1.00
15937;DHT22;9163;48.818;8.976;2023-09-08T14:12:11;37.90;1.00
15937;DHT22;9163;48.818;8.976;2023-09-08T14:14:39;37.80;1.00
15937;DHT22;9163;48.818;8.976;2023-09-08T14:17:06;37.60;1.00
15937;DHT22;9163;48.818;8.976;2023-09-08T14:19:33;37.50;1.00
15937;DHT22;9163;48.818;8.976;2023-09-08T14:22:01;37.50;1.00
15937;DHT22;9163;48.818;8.976;2023-09-08T14:24:29;37.50;99.90
15937;DHT22;9163;48.818;8.976;2023-09-08T14:26:57;37.60;1.00
15937;DHT22;9163;48.818;8.976;2023-09-08T14:29:24;37.50;1.00
15937;DHT22;9163;48.818;8.976;2023-09-08T14:31:51;37.50;1.00
15937;DHT22;9163;48.818;8.976;2023-09-08T14:34:19;37.10;1.00
15937;DHT22;9163;48.818;8.976;2023-09-08T14:36:48;37.20;1.00
15937;DHT22;9163;48.818;8.976;2023-09-08T14:39:15;37.20;1.00
15937;DHT22;9163;48.818;8.976;2023-09-08T14:41:46;37.10;1.00
15937;DHT22;9163;48.818;8.976;2023-09-08T14:44:13;36.60;1.00
15937;DHT22;9163;48.818;8.976;2023-09-08T14:46:40;36.50;99.90
15937;DHT22;9163;48.818;8.976;2023-09-08T14:49:08;36.50;1.00
15937;DHT22;9163;48.818;8.976;2023-09-08T14:51:35;36.30;1.00
15937;DHT22;9163;48.818;8.976;2023-09-08T14:54:03;36.30;99.90
15937;DHT22;9163;48.818;8.976;2023-09-08T14:56:30;36.10;99.90
15937;DHT22;9163;48.818;8.976;2023-09-08T14:58:59;36.30;1.00
15937;DHT22;9163;48.818;8.976;2023-09-08T15:01:26;36.10;99.90
15937;DHT22;9163;48.818;8.976;2023-09-08T15:03:53;36.10;1.00
15937;DHT22;9163;48.818;8.976;2023-09-08T15:06:21;35.80;99.90
15937;DHT22;9163;48.818;8.976;2023-09-08T15:08:48;35.70;99.90
15937;DHT22;9163;48.818;8.976;2023-09-08T15:11:15;35.40;99.90
15937;DHT22;9163;48.818;8.976;2023-09-08T15:13:42;35.40;99.90
15937;DHT22;9163;48.818;8.976;2023-09-08T15:16:11;35.20;99.90
15937;DHT22;9163;48.818;8.976;2023-09-08T15:18:40;35.40;99.90
15937;DHT22;9163;48.818;8.976;2023-09-08T15:21:07;35.50;99.90
15937;DHT22;9163;48.818;8.976;2023-09-08T15:23:35;35.20;99.90
15937;DHT22;9163;48.818;8.976;2023-09-08T15:26:02;35.10;99.90
15937;DHT22;9163;48.818;8.976;2023-09-08T15:28:29;34.80;99.90
15937;DHT22;9163;48.818;8.976;2023-09-08T15:30:57;34.80;99.90
15937;DHT22;9163;48.818;8.976;2023-09-08T15:33:25;34.70;99.90
15937;DHT22;9163;48.818;8.976;2023-09-08T15:35:52;34.70;99.90
15937;DHT22;9163;48.818;8.976;2023-09-08T15:38:21;34.60;99.90
15937;DHT22;9163;48.818;8.976;2023-09-08T15:41:13;34.60;99.90
15937;DHT22;9163;48.818;8.976;2023-09-08T15:43:49;34.40;99.90
15937;DHT22;9163;48.818;8.976;2023-09-08T15:46:18;34.30;99.90
15937;DHT22;9163;48.818;8.976;2023-09-08T15:48:47;34.10;99.90
15937;DHT22;9163;48.818;8.976;2023-09-08T15:51:15;33.80;99.90
15937;DHT22;9163;48.818;8.976;2023-09-08T15:53:42;33.60;99.90
15937;DHT22;9163;48.818;8.976;2023-09-08T15:56:09;33.30;99.90
15937;DHT22;9163;48.818;8.976;2023-09-08T15:58:38;33.40;99.90